Time;durP1;ratioP1;P1;durP2;ratioP2;P2;SDS_P1;SDS_P2;PMS_P1;PMS_P2;Temp;Humidity;BMP_temperature;BMP_pressure;BME280_temperature;BME280_humidity;BME280_pressure;Samples;Min_cycle;Max_cycle;Signal;HPM_P1;HPM_P2
2022/07/27 00:00:57;;;;;;;0.30;0.30;;;16.90;99.90;;;;;;5056649;28;20199;-78
2022/07/27 00:03:23;;;;;;;0.30;0.30;;;16.90;99.90;;;;;;5056224;28;20201;-80
2022/07/27 00:05:48;;;;;;;0.40;0.40;;;17.00;99.90;;;;;;5058478;28;20258;-79
2022/07/27 00:08:14;;;;;;;0.30;0.30;;;17.00;1.00;;;;;;5059083;28;20175;-80
2022/07/27 00:10:40;;;;;;;0.30;0.30;;;16.90;99.90;;;;;;5059306;28;20532;-79
2022/07/27 00:13:05;;;;;;;0.30;0.30;;;16.80;1.00;;;;;;5057319;28;20207;-79
2022/07/27 00:15:33;;;;;;;0.30;0.30;;;16.70;91.50;;;;;;5057323;28;20183;-78
2022/07/27 00:17:59;;;;;;;0.40;0.40;;;16.90;1.00;;;;;;5058873;28;20610;-79
2022/07/27 00:20:29;;;;;;;0.30;0.30;;;16.90;97.30;;;;;;5058204;28;20668;-80
2022/07/27 00:22:55;;;;;;;0.30;0.30;;;16.90;1.00;;;;;;5055257;28;20195;-79
2022/07/27 00:25:22;;;;;;;0.30;0.30;;;17.10;1.00;;;;;;5055343;28;20218;-78
2022/07/27 00:27:47;;;;;;;0.30;0.30;;;17.40;43.80;;;;;;5055048;28;20718;-78
2022/07/27 00:30:13;;;;;;;0.37;0.37;;;17.20;99.90;;;;;;5053995;28;20179;-78
2022/07/27 00:32:39;;;;;;;0.40;0.40;;;17.10;1.00;;;;;;5053529;28;20210;-78
2022/07/27 00:35:05;;;;;;;0.30;0.30;;;17.10;1.00;;;;;;5055295;28;20186;-78
2022/07/27 00:37:30;;;;;;;0.30;0.30;;;17.10;99.90;;;;;;5054370;28;20187;-77
2022/07/27 00:39:56;;;;;;;0.40;0.40;;;17.10;99.90;;;;;;5058071;28;20181;-78
2022/07/27 00:42:26;;;;;;;0.30;0.30;;;17.10;1.00;;;;;;5056375;28;20241;-79
2022/07/27 00:44:53;;;;;;;0.30;0.30;;;16.90;1.00;;;;;;5058019;28;20705;-79
2022/07/27 00:47:19;;;;;;;0.30;0.30;;;16.90;1.00;;;;;;5056743;28;20614;-77
2022/07/27 00:49:44;;;;;;;0.30;0.30;;;16.80;1.00;;;;;;5056101;28;20579;-78
2022/07/27 00:52:10;;;;;;;0.40;0.40;;;16.80;1.00;;;;;;5055221;28;20247;-77
2022/07/27 00:54:36;;;;;;;0.30;0.30;;;16.80;1.00;;;;;;5057491;28;20206;-77
2022/07/27 00:57:03;;;;;;;0.23;0.23;;;16.70;99.90;;;;;;5058188;28;20206;-78
2022/07/27 00:59:28;;;;;;;0.30;0.30;;;16.70;99.90;;;;;;5058539;28;20204;-78
2022/07/27 01:01:54;;;;;;;0.40;0.40;;;16.60;1.00;;;;;;5056959;28;20289;-78
2022/07/27 01:04:20;;;;;;;0.30;0.30;;;16.70;1.00;;;;;;5058991;28;20186;-78
2022/07/27 01:06:45;;;;;;;0.30;0.30;;;16.70;99.90;;;;;;5058835;28;20179;-79
2022/07/27 01:11:57;;;;;;;0.37;0.37;;;16.70;1.00;;;;;;5068461;28;20244;-77
2022/07/27 01:14:25;;;;;;;0.30;0.30;;;16.70;1.00;;;;;;5074231;28;20603;-75
2022/07/27 01:16:51;;;;;;;0.30;0.30;;;16.70;1.00;;;;;;5075624;28;20246;-79
2022/07/27 01:19:17;;;;;;;0.27;0.27;;;16.50;1.00;;;;;;5074433;28;20183;-77
2022/07/27 01:21:43;;;;;;;0.37;0.37;;;16.60;1.00;;;;;;5074277;28;20211;-76
2022/07/27 01:24:09;;;;;;;0.40;0.40;;;16.60;93.80;;;;;;5072822;28;20183;-76
2022/07/27 01:26:36;;;;;;;0.30;0.30;;;16.50;1.00;;;;;;5075361;28;20238;-76
2022/07/27 01:29:02;;;;;;;0.40;0.40;;;16.40;47.30;;;;;;5074065;28;20171;-76
2022/07/27 01:31:27;;;;;;;0.30;0.30;;;16.40;1.00;;;;;;5074233;28;20194;-76
2022/07/27 01:33:53;;;;;;;0.40;0.40;;;16.30;1.00;;;;;;5072683;28;20199;-76
2022/07/27 01:36:19;;;;;;;0.30;0.30;;;16.20;1.00;;;;;;5073262;28;20171;-76
2022/07/27 01:38:45;;;;;;;0.30;0.30;;;16.10;99.90;;;;;;5074622;28;20175;-77
2022/07/27 01:41:11;;;;;;;0.30;0.30;;;16.10;99.90;;;;;;5073485;28;20696;-77
2022/07/27 01:44:12;;;;;;;0.40;0.40;;;16.10;1.00;;;;;;5071396;28;20278;-77
2022/07/27 01:46:38;;;;;;;0.30;0.30;;;15.80;1.00;;;;;;5070785;28;20181;-76
2022/07/27 01:49:04;;;;;;;0.40;0.40;;;15.90;1.00;;;;;;5073859;28;20171;-76
2022/07/27 01:51:29;;;;;;;0.30;0.30;;;15.80;1.00;;;;;;5074402;28;20213;-77
2022/07/27 01:53:55;;;;;;;0.30;0.30;;;15.60;1.00;;;;;;5071673;28;20253;-76
2022/07/27 01:56:21;;;;;;;0.30;0.30;;;15.60;1.00;;;;;;5074859;28;20186;-76
2022/07/27 01:58:46;;;;;;;0.30;0.30;;;15.70;1.00;;;;;;5075183;28;20231;-76
2022/07/27 02:01:12;;;;;;;0.30;0.30;;;15.60;1.00;;;;;;5074153;28;20221;-76
2022/07/27 02:03:37;;;;;;;0.30;0.30;;;15.60;1.00;;;;;;5071128;28;20195;-76
2022/07/27 02:06:04;;;;;;;0.37;0.37;;;15.60;1.00;;;;;;5073712;28;20179;-76
2022/07/27 02:08:30;;;;;;;0.30;0.30;;;15.50;1.00;;;;;;5073844;28;20191;-77
2022/07/27 02:13:43;;;;;;;0.40;0.40;;;15.40;1.00;;;;;;5067709;28;20271;-77
2022/07/27 02:16:08;;;;;;;0.30;0.30;;;15.30;99.90;;;;;;5073252;28;20680;-77
2022/07/27 02:18:34;;;;;;;0.30;0.30;;;15.30;1.00;;;;;;5074956;28;20301;-77
2022/07/27 02:20:59;;;;;;;0.33;0.33;;;15.10;1.00;;;;;;5073113;28;20291;-77
2022/07/27 02:23:25;;;;;;;0.40;0.40;;;15.30;1.00;;;;;;5071382;28;20219;-78
2022/07/27 02:25:50;;;;;;;0.30;0.30;;;15.20;1.00;;;;;;5076151;22;20227;-80
2022/07/27 02:28:16;;;;;;;0.30;0.30;;;15.20;1.00;;;;;;5036204;28;20263;-81
2022/07/27 02:30:41;;;;;;;0.30;0.30;;;15.20;1.00;;;;;;5035728;28;20180;-80
2022/07/27 02:33:07;;;;;;;0.40;0.40;;;15.10;1.00;;;;;;5033859;28;20204;-81
2022/07/27 02:35:33;;;;;;;0.30;0.30;;;15.00;1.00;;;;;;5036346;28;20184;-80
2022/07/27 02:37:59;;;;;;;0.37;0.37;;;15.10;1.00;;;;;;5036139;28;20168;-80
2022/07/27 02:40:24;;;;;;;0.40;0.40;;;15.20;1.00;;;;;;5035529;28;20202;-79
2022/07/27 02:42:50;;;;;;;0.40;0.40;;;15.20;1.00;;;;;;5034155;28;20265;-78
2022/07/27 02:45:15;;;;;;;0.43;0.43;;;15.20;1.00;;;;;;5035227;28;20180;-79
2022/07/27 02:47:41;;;;;;;0.50;0.50;;;15.10;1.00;;;;;;5035462;28;20179;-77
2022/07/27 02:50:08;;;;;;;0.40;0.40;;;15.00;1.00;;;;;;5031263;28;20184;-79
2022/07/27 02:52:35;;;;;;;0.40;0.40;;;15.10;1.00;;;;;;5033529;28;20230;-79
2022/07/27 02:55:01;;;;;;;0.40;0.40;;;15.00;1.00;;;;;;5035181;28;20172;-79
2022/07/27 02:57:27;;;;;;;0.30;0.30;;;15.00;1.00;;;;;;5035259;28;20182;-78
2022/07/27 02:59:52;;;;;;;0.30;0.30;;;15.00;1.00;;;;;;5033787;28;20172;-80
2022/07/27 03:02:18;;;;;;;0.40;0.40;;;14.90;1.00;;;;;;5033337;28;20310;-80
2022/07/27 03:04:43;;;;;;;0.40;0.40;;;15.00;1.00;;;;;;5034939;28;20179;-80
2022/07/27 03:07:09;;;;;;;0.30;0.30;;;15.00;1.00;;;;;;5034995;28;20179;-79
2022/07/27 03:09:35;;;;;;;0.40;0.40;;;14.90;1.00;;;;;;5034883;28;20182;-78
2022/07/27 03:12:01;;;;;;;0.40;0.40;;;14.80;1.00;;;;;;5033041;28;20187;-79
2022/07/27 03:14:27;;;;;;;0.30;0.30;;;14.80;1.00;;;;;;5034966;28;20186;-78
2022/07/27 03:16:52;;;;;;;0.47;0.47;;;14.70;1.00;;;;;;5034628;28;20264;-79
2022/07/27 03:19:18;;;;;;;0.30;0.30;;;14.60;1.00;;;;;;5033965;28;20278;-80
2022/07/27 03:21:44;;;;;;;0.40;0.40;;;14.40;1.00;;;;;;5034564;28;20207;-79
2022/07/27 03:24:10;;;;;;;0.40;0.40;;;14.30;1.00;;;;;;5033505;28;20222;-78
2022/07/27 03:26:35;;;;;;;0.30;0.30;;;14.40;1.00;;;;;;5034026;28;20191;-78
2022/07/27 03:29:01;;;;;;;0.50;0.50;;;14.50;1.00;;;;;;5033808;28;20178;-78
2022/07/27 03:31:26;;;;;;;0.30;0.30;;;14.60;1.00;;;;;;5034047;28;20179;-78
2022/07/27 03:33:52;;;;;;;0.37;0.37;;;14.70;1.00;;;;;;5033136;28;20192;-80
2022/07/27 03:36:17;;;;;;;0.40;0.40;;;14.70;1.00;;;;;;5034566;28;20176;-78
2022/07/27 03:38:43;;;;;;;0.30;0.30;;;14.60;1.00;;;;;;5034181;28;20198;-78
2022/07/27 03:41:09;;;;;;;0.30;0.30;;;14.50;1.00;;;;;;5032118;28;20204;-78
2022/07/27 03:43:34;;;;;;;0.30;0.30;;;14.60;1.00;;;;;;5031417;28;20688;-78
2022/07/27 03:46:00;;;;;;;0.40;0.40;;;14.60;1.00;;;;;;5032943;28;20262;-78
2022/07/27 03:48:26;;;;;;;0.43;0.43;;;14.50;1.00;;;;;;5033228;28;20176;-79
2022/07/27 03:50:52;;;;;;;0.40;0.40;;;14.30;1.00;;;;;;5032757;28;20176;-77
2022/07/27 03:53:20;;;;;;;0.40;0.40;;;14.40;1.00;;;;;;5031717;28;20246;-79
2022/07/27 03:55:46;;;;;;;0.40;0.40;;;14.50;1.00;;;;;;5032802;28;20233;-77
2022/07/27 03:58:12;;;;;;;0.37;0.37;;;14.50;1.00;;;;;;5032796;28;20238;-78
2022/07/27 04:00:37;;;;;;;0.40;0.40;;;14.40;1.00;;;;;;5032474;28;20719;-79
2022/07/27 04:03:03;;;;;;;0.33;0.33;;;14.40;1.00;;;;;;5032832;28;20760;-79
2022/07/27 04:05:29;;;;;;;0.40;0.40;;;14.30;1.00;;;;;;5033796;28;20179;-79
2022/07/27 04:07:54;;;;;;;0.47;0.47;;;14.20;1.00;;;;;;5033643;28;20175;-79
2022/07/27 04:10:20;;;;;;;0.40;0.40;;;14.30;12.20;;;;;;5032693;28;20513;-80
2022/07/27 04:12:45;;;;;;;0.40;0.40;;;14.40;1.00;;;;;;5031912;28;20199;-79
2022/07/27 04:15:11;;;;;;;0.30;0.30;;;14.40;1.00;;;;;;5032831;28;20301;-79
2022/07/27 04:17:36;;;;;;;0.30;0.30;;;14.40;1.00;;;;;;5033751;28;20645;-81
2022/07/27 04:20:03;;;;;;;0.40;0.40;;;14.50;1.00;;;;;;5036216;28;20245;-79
2022/07/27 04:22:28;;;;;;;0.30;0.30;;;14.50;1.00;;;;;;5035896;28;20284;-78
2022/07/27 04:24:54;;;;;;;0.37;0.37;;;14.60;1.00;;;;;;5043353;28;20176;-79
2022/07/27 04:27:20;;;;;;;0.40;0.40;;;14.80;1.00;;;;;;5034807;28;20183;-78
2022/07/27 04:29:45;;;;;;;0.30;0.30;;;14.90;1.00;;;;;;5041325;28;20214;-79
2022/07/27 04:32:11;;;;;;;0.40;0.40;;;15.00;1.00;;;;;;5039640;28;20277;-79
2022/07/27 04:34:36;;;;;;;0.33;0.33;;;15.10;1.00;;;;;;5051297;28;20175;-78
2022/07/27 04:37:02;;;;;;;0.33;0.33;;;15.20;1.00;;;;;;5051073;28;20231;-78
2022/07/27 04:39:27;;;;;;;0.30;0.30;;;15.20;1.00;;;;;;5050446;28;20176;-78
2022/07/27 04:41:53;;;;;;;0.40;0.40;;;15.20;1.00;;;;;;5045842;28;20218;-78
2022/07/27 04:44:18;;;;;;;0.50;0.50;;;15.20;1.00;;;;;;5048083;28;20178;-78
2022/07/27 04:46:44;;;;;;;0.40;0.40;;;15.30;1.00;;;;;;5045856;28;20183;-78
2022/07/27 04:49:10;;;;;;;0.40;0.40;;;15.30;1.00;;;;;;5033072;28;20584;-77
2022/07/27 04:51:35;;;;;;;0.37;0.37;;;15.30;1.00;;;;;;5033185;28;20168;-78
2022/07/27 04:54:02;;;;;;;0.50;0.50;;;15.40;1.00;;;;;;5032302;28;20208;-78
2022/07/27 04:56:27;;;;;;;0.30;0.30;;;15.40;1.00;;;;;;5032252;28;20589;-78
2022/07/27 04:58:54;;;;;;;0.30;0.30;;;15.50;1.00;;;;;;5033028;28;20180;-79
2022/07/27 05:01:21;;;;;;;0.23;0.23;;;15.50;1.00;;;;;;5032178;28;20230;-78
2022/07/27 05:03:47;;;;;;;0.30;0.30;;;15.60;1.00;;;;;;5031458;28;20322;-78
2022/07/27 05:06:12;;;;;;;0.40;0.40;;;15.60;1.00;;;;;;5032979;28;20214;-78
2022/07/27 05:08:38;;;;;;;0.37;0.37;;;15.70;1.00;;;;;;5032605;28;20226;-78
2022/07/27 05:11:03;;;;;;;0.40;0.40;;;15.70;1.00;;;;;;5032739;28;20187;-77
2022/07/27 05:13:29;;;;;;;0.30;0.30;;;15.80;1.00;;;;;;5031484;28;20765;-78
2022/07/27 05:15:54;;;;;;;0.40;0.40;;;16.00;1.00;;;;;;5030977;28;20653;-77
2022/07/27 05:18:20;;;;;;;0.40;0.40;;;16.10;1.00;;;;;;5033823;28;20168;-78
2022/07/27 05:20:46;;;;;;;0.43;0.43;;;16.20;1.00;;;;;;5032680;28;20202;-78
2022/07/27 05:23:11;;;;;;;0.30;0.30;;;16.40;1.00;;;;;;5032670;28;20196;-78
2022/07/27 05:25:37;;;;;;;0.33;0.33;;;16.40;1.00;;;;;;5038079;28;20187;-82
2022/07/27 05:28:02;;;;;;;0.40;0.40;;;16.60;1.00;;;;;;5041198;28;20175;-79
2022/07/27 05:30:28;;;;;;;0.33;0.33;;;16.80;1.00;;;;;;5040870;28;20517;-79
2022/07/27 05:32:54;;;;;;;0.30;0.30;;;17.00;1.00;;;;;;5039707;28;20210;-79
2022/07/27 05:35:20;;;;;;;0.30;0.30;;;17.10;1.00;;;;;;5041772;28;20224;-80
2022/07/27 05:37:46;;;;;;;0.50;0.50;;;17.30;1.00;;;;;;5041103;28;20270;-83
2022/07/27 05:40:12;;;;;;;0.30;0.30;;;17.40;1.00;;;;;;5041351;28;20204;-81
2022/07/27 05:42:40;;;;;;;0.40;0.40;;;17.50;1.00;;;;;;5040942;28;20582;-79
2022/07/27 05:45:06;;;;;;;0.37;0.37;;;17.60;1.00;;;;;;5042316;28;20211;-80
2022/07/27 05:47:31;;;;;;;0.40;0.40;;;17.80;99.90;;;;;;5042132;28;20561;-79
2022/07/27 05:49:57;;;;;;;0.40;0.40;;;17.80;1.00;;;;;;5043972;28;20206;-79
2022/07/27 05:52:22;;;;;;;0.30;0.30;;;17.90;1.00;;;;;;5042857;28;20222;-80
2022/07/27 05:54:48;;;;;;;0.30;0.30;;;18.00;1.00;;;;;;5043494;28;20175;-78
2022/07/27 05:57:14;;;;;;;0.30;0.30;;;18.00;1.00;;;;;;5044445;28;20180;-79
2022/07/27 05:59:40;;;;;;;0.40;0.40;;;18.00;10.80;;;;;;5044824;28;20179;-80
2022/07/27 06:02:06;;;;;;;0.43;0.43;;;18.10;1.00;;;;;;5044147;28;20224;-79
2022/07/27 06:04:32;;;;;;;0.40;0.40;;;18.30;99.90;;;;;;5044995;28;20176;-80
2022/07/27 06:09:42;;;;;;;0.40;0.40;;;18.30;99.90;;;;;;5043647;28;20179;-79
2022/07/27 06:12:07;;;;;;;0.30;0.30;;;18.40;99.90;;;;;;5043588;28;20549;-79
2022/07/27 06:14:33;;;;;;;0.30;0.30;;;18.50;1.00;;;;;;5045047;28;20271;-79
2022/07/27 06:16:59;;;;;;;0.30;0.30;;;18.50;1.00;;;;;;5044555;28;20225;-80
2022/07/27 06:19:24;;;;;;;0.30;0.30;;;18.50;99.90;;;;;;5044568;28;20184;-81
2022/07/27 06:21:50;;;;;;;0.40;0.40;;;18.70;1.00;;;;;;5052891;28;20261;-80
2022/07/27 06:24:16;;;;;;;0.30;0.30;;;18.70;1.00;;;;;;5053703;28;20192;-79
2022/07/27 06:26:42;;;;;;;0.30;0.30;;;18.80;99.90;;;;;;5044154;28;20265;-79
2022/07/27 06:29:07;;;;;;;0.37;0.37;;;18.80;99.90;;;;;;5039500;28;20613;-81
2022/07/27 06:31:33;;;;;;;0.30;0.30;;;18.90;99.90;;;;;;5038628;28;20597;-81
2022/07/27 06:33:59;;;;;;;0.30;0.30;;;19.00;99.90;;;;;;5035151;28;20196;-79
2022/07/27 06:36:24;;;;;;;0.40;0.40;;;19.20;2.50;;;;;;5037314;28;20653;-80
2022/07/27 06:38:50;;;;;;;0.40;0.40;;;19.40;99.90;;;;;;5037176;28;20180;-80
2022/07/27 06:41:15;;;;;;;0.30;0.30;;;19.50;92.60;;;;;;5037398;28;20207;-80
2022/07/27 06:43:41;;;;;;;0.30;0.30;;;19.50;99.90;;;;;;5036565;28;20679;-79
2022/07/27 06:46:11;;;;;;;0.33;0.33;;;19.70;99.90;;;;;;5037412;28;20187;-79
2022/07/27 06:48:37;;;;;;;0.20;0.20;;;19.80;1.00;;;;;;5038481;28;20176;-79
2022/07/27 06:51:03;;;;;;;0.40;0.40;;;19.90;1.00;;;;;;5037188;28;20183;-78
2022/07/27 06:53:29;;;;;;;0.30;0.30;;;19.90;1.00;;;;;;5036011;28;20195;-78
2022/07/27 06:55:57;;;;;;;0.30;0.30;;;19.90;1.00;;;;;;5037131;28;20213;-78
2022/07/27 06:58:22;;;;;;;0.40;0.40;;;19.90;1.00;;;;;;5037771;28;20172;-79
2022/07/27 07:00:48;;;;;;;0.30;0.30;;;20.00;1.00;;;;;;5030052;28;20204;-82
2022/07/27 07:03:13;;;;;;;0.30;0.30;;;20.20;99.90;;;;;;5034350;28;20200;-79
2022/07/27 07:05:46;;;;;;;0.30;0.30;;;20.40;99.90;;;;;;5034247;28;20249;-79
2022/07/27 07:08:13;;;;;;;0.30;0.30;;;20.70;99.90;;;;;;5037318;28;20171;-80
2022/07/27 07:10:40;;;;;;;0.30;0.30;;;20.60;99.90;;;;;;5036600;28;20199;-79
2022/07/27 07:13:06;;;;;;;0.30;0.30;;;20.60;99.90;;;;;;5036236;28;20198;-79
2022/07/27 07:15:33;;;;;;;0.30;0.30;;;20.60;99.90;;;;;;5036730;28;20186;-78
2022/07/27 07:17:59;;;;;;;0.30;0.30;;;20.80;99.90;;;;;;5037189;28;20183;-78
2022/07/27 07:20:24;;;;;;;0.20;0.20;;;20.90;99.90;;;;;;5037887;28;20180;-78
2022/07/27 07:22:50;;;;;;;0.30;0.30;;;21.00;65.10;;;;;;5047685;28;20299;-78
2022/07/27 07:25:16;;;;;;;0.30;0.30;;;21.20;1.00;;;;;;5052928;28;20196;-78
2022/07/27 07:27:42;;;;;;;0.30;0.30;;;21.00;5.40;;;;;;5057776;28;20167;-77
2022/07/27 07:30:08;;;;;;;0.30;0.30;;;21.10;1.00;;;;;;5057779;28;20190;-78
2022/07/27 07:32:33;;;;;;;0.30;0.30;;;21.30;1.00;;;;;;5056609;28;20183;-78
2022/07/27 07:34:59;;;;;;;0.30;0.30;;;21.40;1.00;;;;;;5043184;28;20187;-79
2022/07/27 07:37:25;;;;;;;0.20;0.20;;;21.50;1.00;;;;;;5038203;28;20176;-80
2022/07/27 07:39:51;;;;;;;0.20;0.20;;;21.50;1.00;;;;;;5038479;28;20186;-79
2022/07/27 07:42:16;;;;;;;0.20;0.20;;;21.60;1.00;;;;;;5037231;28;20685;-80
2022/07/27 07:44:42;;;;;;;0.30;0.30;;;21.60;1.00;;;;;;5036328;28;20310;-79
2022/07/27 07:47:08;;;;;;;0.30;0.30;;;21.60;1.00;;;;;;5035045;28;20180;-80
2022/07/27 07:49:34;;;;;;;0.30;0.30;;;22.00;1.00;;;;;;5035235;28;20218;-82
2022/07/27 07:52:00;;;;;;;0.30;0.30;;;22.20;1.00;;;;;;5035545;28;20640;-81
2022/07/27 07:54:26;;;;;;;0.20;0.20;;;22.30;1.00;;;;;;5035588;28;20314;-80
2022/07/27 07:56:52;;;;;;;0.40;0.40;;;22.60;1.00;;;;;;5035360;28;20187;-80
2022/07/27 07:59:17;;;;;;;0.30;0.30;;;22.80;1.00;;;;;;5036209;28;20175;-81
2022/07/27 08:01:43;;;;;;;0.20;0.20;;;23.00;1.00;;;;;;5035695;28;20726;-82
2022/07/27 08:04:08;;;;;;;0.37;0.37;;;23.30;1.00;;;;;;5035150;28;20168;-79
2022/07/27 08:06:34;;;;;;;0.20;0.20;;;23.40;1.00;;;;;;5033980;28;20543;-80
2022/07/27 08:08:59;;;;;;;0.20;0.20;;;23.50;1.00;;;;;;5034912;28;20587;-80
2022/07/27 08:11:25;;;;;;;0.20;0.20;;;23.40;1.00;;;;;;5034745;28;20199;-79
2022/07/27 08:13:50;;;;;;;0.40;0.40;;;23.30;1.00;;;;;;5034282;28;20653;-79
2022/07/27 08:16:16;;;;;;;0.30;0.30;;;23.20;1.00;;;;;;5032530;28;20575;-80
2022/07/27 08:18:42;;;;;;;0.30;0.30;;;23.20;1.00;;;;;;5034864;28;20172;-80
2022/07/27 08:21:08;;;;;;;0.40;0.40;;;23.20;1.00;;;;;;5035407;28;20571;-80
2022/07/27 08:23:34;;;;;;;0.30;0.30;;;23.30;1.00;;;;;;5035119;28;20771;-81
2022/07/27 08:26:00;;;;;;;0.30;0.30;;;23.60;1.00;;;;;;5042679;28;20199;-80
2022/07/27 08:28:25;;;;;;;0.47;0.47;;;23.70;1.00;;;;;;5035532;28;20176;-82
2022/07/27 08:30:51;;;;;;;0.30;0.30;;;23.60;1.00;;;;;;5044220;28;20184;-83
2022/07/27 08:33:17;;;;;;;0.30;0.30;;;23.50;1.00;;;;;;5035977;28;20200;-82
2022/07/27 08:35:44;;;;;;;0.30;0.30;;;23.70;1.00;;;;;;5035588;28;20235;-81
2022/07/27 08:38:10;;;;;;;0.30;0.30;;;23.60;1.00;;;;;;5037194;28;20192;-82
2022/07/27 08:40:37;;;;;;;0.23;0.23;;;24.20;1.00;;;;;;5035532;28;20229;-82
2022/07/27 08:43:03;;;;;;;0.30;0.30;;;24.50;1.00;;;;;;5055692;28;20521;-82
2022/07/27 08:45:29;;;;;;;0.20;0.20;;;24.30;1.00;;;;;;5055877;28;20175;-83
2022/07/27 08:47:55;;;;;;;0.30;0.30;;;24.40;1.00;;;;;;5055965;28;20182;-83
2022/07/27 08:50:26;;;;;;;0.30;0.30;;;24.50;1.00;;;;;;5055101;28;20554;-85
2022/07/27 08:53:06;;;;;;;0.40;0.40;;;24.40;1.00;;;;;;5039388;28;20541;-84
2022/07/27 08:55:34;;;;;;;0.40;0.40;;;25.30;1.00;;;;;;5056838;28;20197;-84
2022/07/27 08:58:00;;;;;;;0.40;0.40;;;25.80;1.00;;;;;;5045485;28;20191;-83
2022/07/27 09:00:26;;;;;;;0.43;0.43;;;25.90;1.00;;;;;;5039839;28;20172;-83
2022/07/27 09:02:52;;;;;;;0.53;0.53;;;25.90;1.00;;;;;;5056897;28;20187;-82
2022/07/27 09:05:18;;;;;;;0.50;0.50;;;26.20;1.00;;;;;;5039439;28;20179;-84
2022/07/27 09:07:43;;;;;;;0.47;0.47;;;26.20;1.00;;;;;;5037433;28;20591;-81
2022/07/27 09:10:10;;;;;;;0.40;0.40;;;26.80;1.00;;;;;;5051240;28;20209;-81
2022/07/27 09:12:36;;;;;;;0.43;0.43;;;26.80;1.00;;;;;;5041449;28;20214;-82
2022/07/27 09:15:12;;;;;;;0.50;0.50;;;27.20;1.00;;;;;;5056809;28;20176;-81
2022/07/27 09:17:40;;;;;;;0.40;0.40;;;27.90;1.00;;;;;;5035961;28;20180;-80
2022/07/27 09:20:09;;;;;;;0.50;0.50;;;27.90;1.00;;;;;;5041918;28;20176;-79
2022/07/27 09:22:41;;;;;;;0.50;0.50;;;27.60;1.00;;;;;;5037319;28;20227;-80
2022/07/27 09:25:09;;;;;;;0.50;0.50;;;27.30;1.00;;;;;;5038112;28;20195;-79
2022/07/27 09:27:35;;;;;;;0.60;0.60;;;27.80;1.00;;;;;;5037070;28;20180;-78
2022/07/27 09:30:07;;;;;;;0.60;0.60;;;27.40;1.00;;;;;;5035840;28;20203;-79
2022/07/27 09:32:33;;;;;;;0.50;0.50;;;27.10;1.00;;;;;;5037255;28;20199;-79
2022/07/27 09:35:14;;;;;;;0.40;0.40;;;26.70;1.00;;;;;;5036582;28;20222;-78
2022/07/27 09:37:39;;;;;;;0.50;0.50;;;26.60;1.00;;;;;;5036647;28;20176;-79
2022/07/27 09:40:31;;;;;;;0.50;0.50;;;26.50;1.00;;;;;;5035758;28;20287;-78
2022/07/27 09:43:11;;;;;;;0.40;0.40;;;26.70;1.00;;;;;;5033264;28;20224;-79
2022/07/27 09:45:38;;;;;;;0.50;0.50;;;26.70;1.00;;;;;;5035679;28;20172;-79
2022/07/27 09:48:15;;;;;;;0.70;0.70;;;27.40;1.00;;;;;;5036032;28;20172;-78
2022/07/27 09:50:44;;;;;;;0.50;0.50;;;27.60;1.00;;;;;;5035166;28;20180;-80
2022/07/27 09:53:18;;;;;;;0.40;0.40;;;27.10;1.00;;;;;;5036023;28;20287;-79
2022/07/27 09:55:46;;;;;;;0.50;0.50;;;27.00;1.00;;;;;;5036016;28;20182;-79
2022/07/27 09:58:11;;;;;;;0.40;0.40;;;26.50;1.00;;;;;;5036243;28;20194;-79
2022/07/27 10:00:37;;;;;;;0.50;0.50;;;27.20;1.00;;;;;;5035214;28;20180;-78
2022/07/27 10:03:03;;;;;;;0.40;0.40;;;26.90;1.00;;;;;;5035560;28;20633;-78
2022/07/27 10:05:29;;;;;;;0.30;0.30;;;26.70;1.00;;;;;;5036429;28;20180;-80
2022/07/27 10:07:54;;;;;;;0.47;0.47;;;26.90;1.00;;;;;;5036353;28;20180;-80
2022/07/27 10:10:22;;;;;;;0.40;0.40;;;27.10;1.00;;;;;;5035184;28;20259;-80
2022/07/27 10:12:48;;;;;;;0.47;0.47;;;27.70;1.00;;;;;;5035021;28;20556;-79
2022/07/27 10:15:13;;;;;;;0.50;0.50;;;28.60;1.00;;;;;;5036003;28;20207;-79
2022/07/27 10:17:42;;;;;;;0.40;0.40;;;28.50;1.00;;;;;;5036052;28;20179;-81
2022/07/27 10:20:10;;;;;;;0.60;0.60;;;27.90;1.00;;;;;;5035373;28;20176;-81
2022/07/27 10:22:57;;;;;;;0.40;0.40;;;27.20;1.00;;;;;;5035584;28;20231;-80
2022/07/27 10:25:25;;;;;;;0.40;0.40;;;26.80;1.00;;;;;;5036096;28;20199;-79
2022/07/27 10:28:08;;;;;;;0.40;0.40;;;26.40;1.00;;;;;;5032733;28;20180;-80
2022/07/27 10:30:34;;;;;;;0.50;0.50;;;25.70;1.00;;;;;;5035645;28;20247;-80
2022/07/27 10:33:11;;;;;;;0.40;0.40;;;25.60;1.00;;;;;;5034823;28;20280;-80
2022/07/27 10:35:36;;;;;;;0.30;0.30;;;25.60;1.00;;;;;;5036346;28;20182;-79
2022/07/27 10:38:11;;;;;;;0.40;0.40;;;25.70;1.00;;;;;;5037897;28;20180;-79
2022/07/27 10:40:37;;;;;;;0.37;0.37;;;25.80;1.00;;;;;;5038524;28;20175;-80
2022/07/27 10:43:20;;;;;;;0.43;0.43;;;25.50;1.00;;;;;;5037014;28;20207;-79
2022/07/27 10:45:48;;;;;;;0.40;0.40;;;25.50;1.00;;;;;;5037543;28;20706;-80
2022/07/27 10:48:37;;;;;;;0.37;0.37;;;25.40;1.00;;;;;;5036659;28;20176;-80
2022/07/27 10:51:04;;;;;;;0.30;0.30;;;25.80;1.00;;;;;;5035863;28;20175;-79
2022/07/27 10:53:35;;;;;;;0.30;0.30;;;25.90;1.00;;;;;;5037269;28;20200;-79
2022/07/27 10:56:02;;;;;;;0.30;0.30;;;26.20;1.00;;;;;;5042465;28;20261;-79
2022/07/27 10:58:28;;;;;;;0.40;0.40;;;26.40;1.00;;;;;;5043102;28;20203;-79
2022/07/27 11:00:53;;;;;;;0.40;0.40;;;27.30;1.00;;;;;;5040649;28;20607;-79
2022/07/27 11:03:22;;;;;;;0.50;0.50;;;27.90;1.00;;;;;;5042077;28;20215;-78
2022/07/27 11:05:54;;;;;;;0.40;0.40;;;28.80;1.00;;;;;;5040971;28;20190;-79
2022/07/27 11:08:28;;;;;;;0.50;0.50;;;28.80;1.00;;;;;;5034583;28;20175;-80
2022/07/27 11:10:54;;;;;;;0.50;0.50;;;28.20;1.00;;;;;;5033635;28;20176;-80
2022/07/27 11:13:22;;;;;;;0.40;0.40;;;27.30;1.00;;;;;;5033913;28;20203;-79
2022/07/27 11:15:53;;;;;;;0.40;0.40;;;26.80;1.00;;;;;;5034087;28;20191;-79
2022/07/27 11:18:27;;;;;;;0.50;0.50;;;26.70;1.00;;;;;;5034034;28;20667;-79
2022/07/27 11:21:16;;;;;;;0.43;0.43;;;27.50;1.00;;;;;;5033138;28;20560;-79
2022/07/27 11:23:43;;;;;;;0.50;0.50;;;27.50;1.00;;;;;;5034037;28;20202;-79
2022/07/27 11:26:09;;;;;;;0.50;0.50;;;27.80;1.00;;;;;;5033827;28;20196;-79
2022/07/27 11:28:35;;;;;;;0.60;0.60;;;28.40;1.00;;;;;;5033823;28;20176;-78
2022/07/27 11:31:01;;;;;;;0.47;0.47;;;29.20;1.00;;;;;;5033039;28;20230;-80
2022/07/27 11:33:27;;;;;;;0.50;0.50;;;30.20;1.00;;;;;;5033941;28;20227;-81
2022/07/27 11:35:58;;;;;;;0.30;0.30;;;30.20;1.00;;;;;;5033833;28;20187;-79
2022/07/27 11:38:24;;;;;;;0.50;0.50;;;29.40;1.00;;;;;;5033618;28;20180;-79
2022/07/27 11:40:52;;;;;;;0.60;0.60;;;28.60;1.00;;;;;;5033377;28;20222;-79
2022/07/27 11:43:39;;;;;;;0.60;0.60;;;28.60;1.00;;;;;;5033787;28;20245;-80
2022/07/27 11:46:15;;;;;;;0.47;0.47;;;28.90;1.00;;;;;;5033610;28;20172;-78
2022/07/27 11:49:13;;;;;;;0.53;0.53;;;28.60;1.00;;;;;;5033600;28;20633;-81
2022/07/27 11:51:41;;;;;;;0.60;0.60;;;28.50;1.00;;;;;;5021729;28;20190;-79
2022/07/27 11:54:19;;;;;;;0.50;0.50;;;28.40;1.00;;;;;;5033933;28;20171;-80
2022/07/27 11:56:48;;;;;;;0.50;0.50;;;27.70;1.00;;;;;;5033873;28;20674;-78
2022/07/27 11:59:22;;;;;;;0.40;0.40;;;27.20;1.00;;;;;;5033098;28;20176;-79
2022/07/27 12:01:51;;;;;;;0.30;0.30;;;27.90;1.00;;;;;;5033212;28;20253;-79
2022/07/27 12:04:44;;;;;;;0.30;0.30;;;27.70;1.00;;;;;;5033233;28;20183;-79
2022/07/27 12:07:28;;;;;;;0.30;0.30;;;27.40;1.00;;;;;;5026642;28;20184;-79
2022/07/27 12:09:56;;;;;;;0.50;0.50;;;27.20;1.00;;;;;;5032938;28;20176;-80
2022/07/27 12:12:27;;;;;;;0.50;0.50;;;26.90;1.00;;;;;;5033350;28;20223;-81
2022/07/27 12:14:56;;;;;;;0.30;0.30;;;26.80;1.00;;;;;;5033817;28;20658;-79
2022/07/27 12:17:30;;;;;;;0.50;0.50;;;26.80;1.00;;;;;;5033616;28;20674;-79
2022/07/27 12:20:05;;;;;;;0.30;0.30;;;26.80;1.00;;;;;;5033107;28;20266;-80
2022/07/27 12:22:51;;;;;;;0.33;0.33;;;26.70;1.00;;;;;;5033268;28;20297;-78
2022/07/27 12:25:16;;;;;;;0.30;0.30;;;26.70;1.00;;;;;;5034303;28;20203;-79
2022/07/27 12:27:58;;;;;;;0.50;0.50;;;27.00;1.00;;;;;;5031615;28;20192;-78
2022/07/27 12:30:33;;;;;;;0.50;0.50;;;27.10;1.00;;;;;;5033755;28;20191;-80
2022/07/27 12:32:59;;;;;;;0.50;0.50;;;27.70;1.00;;;;;;5031786;28;20202;-77
2022/07/27 12:35:30;;;;;;;0.50;0.50;;;28.60;1.00;;;;;;5033041;28;20180;-78
2022/07/27 12:38:07;;;;;;;0.30;0.30;;;29.10;1.00;;;;;;5032506;28;20182;-77
2022/07/27 12:40:33;;;;;;;0.40;0.40;;;29.50;1.00;;;;;;5032499;28;20179;-78
2022/07/27 12:43:04;;;;;;;0.50;0.50;;;29.20;1.00;;;;;;5033423;28;20231;-78
2022/07/27 12:45:36;;;;;;;0.60;0.60;;;28.10;1.00;;;;;;5033370;28;20600;-77
2022/07/27 12:48:05;;;;;;;0.30;0.30;;;27.40;1.00;;;;;;5032856;28;20657;-79
2022/07/27 12:50:30;;;;;;;0.33;0.33;;;27.20;1.00;;;;;;5032583;28;20676;-79
2022/07/27 12:52:56;;;;;;;0.30;0.30;;;27.30;1.00;;;;;;5032948;28;20226;-82
2022/07/27 12:55:22;;;;;;;0.40;0.40;;;27.60;1.00;;;;;;5036318;28;20179;-83
2022/07/27 12:57:49;;;;;;;0.40;0.40;;;27.50;1.00;;;;;;5034268;28;20176;-78
2022/07/27 13:00:20;;;;;;;0.40;0.40;;;28.00;1.00;;;;;;5032366;28;20656;-78
2022/07/27 13:02:45;;;;;;;0.43;0.43;;;28.60;1.00;;;;;;5035626;28;20227;-77
2022/07/27 13:05:12;;;;;;;0.60;0.60;;;28.90;1.00;;;;;;5033444;28;20330;-79